createdAt,value
2023-01-02T00:03:33.795Z,25.35
2023-01-02T00:06:05.296Z,27.77
2023-01-02T00:08:32.368Z,24.50
2023-01-02T00:10:59.265Z,25.00
2023-01-02T00:13:26.391Z,26.42
2023-01-02T00:15:53.255Z,26.45
2023-01-02T00:18:20.245Z,25.02
2023-01-02T00:20:47.048Z,28.33
2023-01-02T00:23:13.847Z,27.80
2023-01-02T00:25:41.406Z,24.80
2023-01-02T00:28:08.314Z,26.65
2023-01-02T00:30:38.952Z,26.33
2023-01-02T00:33:06.764Z,27.45
2023-01-02T00:35:33.779Z,27.02
2023-01-02T00:38:00.538Z,28.15
2023-01-02T00:40:27.393Z,25.83
2023-01-02T00:42:54.146Z,24.42
2023-01-02T00:45:20.944Z,25.33
2023-01-02T00:47:47.690Z,25.75
2023-01-02T00:50:14.518Z,26.35
2023-01-02T00:52:41.243Z,25.10
2023-01-02T00:55:08.508Z,24.30
2023-01-02T00:57:35.265Z,25.25
2023-01-02T01:00:02.345Z,26.55
2023-01-02T01:02:29.255Z,25.13
2023-01-02T01:04:56.286Z,23.08
2023-01-02T01:07:23.038Z,24.10
2023-01-02T01:09:49.808Z,23.30
2023-01-02T01:12:16.602Z,24.23
2023-01-02T01:14:44.181Z,23.52
2023-01-02T01:17:11.191Z,22.40
2023-01-02T01:19:37.975Z,26.23
2023-01-02T01:22:04.684Z,22.77
2023-01-02T01:24:31.522Z,23.23
2023-01-02T01:26:58.397Z,24.15
2023-01-02T01:29:25.213Z,25.17
2023-01-02T01:31:52.044Z,24.65
2023-01-02T01:34:18.829Z,25.77
2023-01-02T01:36:45.626Z,22.75
2023-01-02T01:39:12.450Z,23.60
2023-01-02T01:41:39.269Z,24.40
2023-01-02T01:44:45.167Z,23.92
2023-01-02T01:47:36.797Z,23.08
2023-01-02T01:50:29.673Z,24.45
2023-01-02T01:53:05.652Z,22.98
2023-01-02T01:55:39.046Z,22.58
2023-01-02T01:58:12.934Z,21.08
2023-01-02T02:00:42.035Z,27.10
2023-01-02T02:03:17.276Z,24.53
2023-01-02T02:05:45.587Z,24.30
2023-01-02T02:08:32.168Z,21.42
2023-01-02T02:11:00.415Z,21.42
2023-01-02T02:13:27.367Z,22.60
2023-01-02T02:16:15.462Z,23.65
2023-01-02T02:18:56.738Z,23.05
2023-01-02T02:21:48.159Z,23.77
2023-01-02T02:24:33.384Z,25.05
2023-01-02T02:27:04.669Z,23.98
2023-01-02T02:30:03.444Z,23.90
2023-01-02T02:33:04.494Z,23.35
2023-01-02T02:35:49.885Z,24.40
2023-01-02T02:38:36.365Z,26.90
2023-01-02T02:41:18.072Z,24.77
2023-01-02T02:44:00.770Z,24.58
2023-01-02T02:46:45.969Z,22.80
2023-01-02T02:50:09.820Z,26.77
2023-01-02T02:52:49.034Z,26.08
2023-01-02T02:55:22.245Z,24.67
2023-01-02T02:57:51.918Z,24.90
2023-01-02T03:00:22.570Z,22.95
2023-01-02T03:02:49.416Z,24.02
2023-01-02T03:05:30.398Z,23.52
2023-01-02T03:08:16.095Z,23.55
2023-01-02T03:11:00.162Z,23.55
2023-01-02T03:13:26.859Z,24.27
2023-01-02T03:16:16.396Z,25.05
2023-01-02T03:18:49.938Z,24.88
2023-01-02T03:21:31.769Z,22.90
2023-01-02T03:24:03.821Z,22.33
2023-01-02T03:26:33.636Z,22.55
2023-01-02T03:29:08.639Z,22.52
2023-01-02T03:31:40.301Z,23.90
2023-01-02T03:34:21.624Z,23.25
2023-01-02T03:36:53.885Z,23.80
2023-01-02T03:39:27.068Z,22.48
2023-01-02T03:41:57.150Z,22.65
2023-01-02T03:44:28.506Z,22.17
2023-01-02T03:47:32.620Z,21.15
2023-01-02T03:50:03.952Z,21.52
2023-01-02T03:52:30.913Z,21.52
2023-01-02T03:55:00.671Z,22.02
2023-01-02T03:57:57.544Z,21.33
2023-01-02T04:00:41.621Z,21.10
2023-01-02T04:03:22.058Z,20.40
2023-01-02T04:06:00.376Z,20.48
2023-01-02T04:08:38.007Z,23.92
2023-01-02T04:11:06.780Z,24.00
2023-01-02T04:13:39.874Z,24.23
2023-01-02T04:16:11.273Z,21.98
2023-01-02T04:18:47.102Z,22.50
2023-01-02T04:21:17.948Z,23.35
2023-01-02T04:24:24.391Z,22.27
2023-01-02T04:27:04.062Z,25.10
2023-01-02T04:29:31.451Z,24.48
2023-01-02T04:32:27.585Z,23.77
2023-01-02T04:34:55.777Z,24.70
2023-01-02T04:37:35.473Z,22.02
2023-01-02T04:40:21.118Z,22.02
2023-01-02T04:42:47.916Z,24.60
2023-01-02T04:45:14.793Z,23.95
2023-01-02T04:47:41.759Z,23.33
2023-01-02T04:50:09.809Z,24.35
2023-01-02T04:52:37.302Z,23.33
2023-01-02T04:55:06.070Z,24.63
2023-01-02T04:57:32.774Z,22.65
2023-01-02T04:59:59.512Z,23.60
2023-01-02T05:02:27.981Z,24.05
2023-01-02T05:04:54.807Z,22.75
2023-01-02T05:07:21.531Z,23.25
2023-01-02T05:09:48.272Z,23.25
2023-01-02T05:12:15.010Z,22.92
2023-01-02T05:14:41.790Z,22.90
2023-01-02T05:17:08.535Z,25.05
2023-01-02T05:19:35.638Z,23.30
2023-01-02T05:22:21.083Z,23.67
2023-01-02T05:24:47.774Z,24.58
2023-01-02T05:27:14.496Z,24.15
2023-01-02T05:29:41.332Z,23.13
2023-01-02T05:32:08.096Z,23.48
2023-01-02T05:34:34.830Z,23.48
2023-01-02T05:37:01.575Z,23.60
2023-01-02T05:39:28.249Z,23.90
2023-01-02T05:41:55.131Z,22.08
2023-01-02T05:44:21.903Z,21.55
2023-01-02T05:46:48.685Z,22.30
2023-01-02T05:49:15.519Z,21.17
2023-01-02T05:51:42.252Z,21.92
2023-01-02T05:54:09.220Z,21.30
2023-01-02T05:56:36.078Z,20.63
2023-01-02T05:59:08.057Z,22.98
2023-01-02T06:01:35.317Z,23.75
2023-01-02T06:04:02.548Z,21.92
2023-01-02T06:06:47.751Z,20.80
2023-01-02T06:09:15.964Z,19.48
2023-01-02T06:11:43.228Z,19.67
2023-01-02T06:14:12.809Z,21.45
2023-01-02T06:16:40.252Z,22.83
2023-01-02T06:19:07.596Z,21.90
2023-01-02T06:21:34.734Z,21.63
2023-01-02T06:24:01.561Z,19.77
2023-01-02T06:26:34.653Z,20.40
2023-01-02T06:29:02.471Z,17.92
2023-01-02T06:31:29.906Z,21.63
2023-01-02T06:34:01.520Z,24.33
2023-01-02T06:36:34.687Z,24.17
2023-01-02T06:39:02.063Z,24.27
2023-01-02T06:41:28.932Z,23.35
2023-01-02T06:43:55.829Z,24.60
2023-01-02T06:46:23.871Z,24.60
2023-01-02T06:48:51.099Z,25.65
2023-01-02T06:51:20.679Z,24.88
2023-01-02T06:53:47.702Z,23.02
2023-01-02T06:56:17.063Z,22.92
2023-01-02T06:58:44.204Z,22.90
2023-01-02T07:01:14.412Z,24.13
2023-01-02T07:03:41.859Z,26.60
2023-01-02T07:06:14.783Z,26.95
2023-01-02T07:08:43.466Z,24.42
2023-01-02T07:11:22.585Z,23.60
2023-01-02T07:13:52.902Z,22.73
2023-01-02T07:16:21.401Z,22.33
2023-01-02T07:18:48.755Z,21.45
2023-01-02T07:21:18.231Z,21.77
2023-01-02T07:23:45.128Z,23.42
2023-01-02T07:26:12.641Z,27.90
2023-01-02T07:28:39.618Z,27.67
2023-01-02T07:31:09.319Z,25.42
2023-01-02T07:33:36.245Z,18.75
2023-01-02T07:36:15.394Z,22.98
2023-01-02T07:38:42.139Z,27.52
2023-01-02T07:41:16.864Z,30.35
2023-01-02T07:43:45.067Z,32.95
2023-01-02T07:46:13.205Z,27.83
2023-01-02T07:48:40.073Z,25.65
2023-01-02T07:51:08.120Z,24.77
2023-01-02T07:53:35.671Z,24.00
2023-01-02T07:56:03.481Z,23.42
2023-01-02T07:58:31.098Z,24.40
2023-01-02T08:01:05.117Z,28.98
2023-01-02T08:03:32.907Z,28.58
2023-01-02T08:06:04.987Z,26.65
2023-01-02T08:08:31.851Z,24.80
2023-01-02T08:10:58.646Z,28.10
2023-01-02T08:13:25.361Z,24.40
2023-01-02T08:15:52.177Z,25.13
2023-01-02T08:18:18.878Z,27.08
2023-01-02T08:20:45.649Z,27.92
2023-01-02T08:23:12.555Z,26.08
2023-01-02T08:25:39.316Z,29.00
2023-01-02T08:28:06.128Z,27.88
2023-01-02T08:30:32.913Z,24.30
2023-01-02T08:33:01.149Z,24.90
2023-01-02T08:35:37.901Z,26.67
2023-01-02T08:38:05.501Z,28.65
2023-01-02T08:40:32.269Z,28.13
2023-01-02T08:42:59.055Z,24.58
2023-01-02T08:45:25.828Z,23.30
2023-01-02T08:47:52.808Z,25.80
2023-01-02T08:50:19.813Z,24.83
2023-01-02T08:52:46.531Z,24.80
2023-01-02T08:55:13.571Z,24.88
2023-01-02T08:57:40.477Z,24.00
2023-01-02T09:00:07.866Z,23.02
2023-01-02T09:02:35.770Z,22.60
2023-01-02T09:05:02.682Z,22.08
2023-01-02T09:07:32.531Z,23.40
2023-01-02T09:09:59.856Z,19.85
2023-01-02T09:12:26.865Z,21.38
2023-01-02T09:14:53.594Z,20.00
2023-01-02T09:17:20.362Z,20.75
2023-01-02T09:19:47.268Z,21.80
2023-01-02T09:22:14.070Z,18.73
2023-01-02T09:24:41.815Z,18.65
2023-01-02T09:27:08.661Z,20.08
2023-01-02T09:29:35.412Z,19.63
2023-01-02T09:32:02.148Z,18.48
2023-01-02T09:34:28.985Z,16.95
2023-01-02T09:36:55.738Z,17.27
2023-01-02T09:39:26.948Z,14.15
2023-01-02T09:42:00.410Z,13.48
2023-01-02T09:44:33.568Z,13.18
2023-01-02T09:47:12.408Z,12.90
2023-01-02T09:49:49.953Z,12.55
2023-01-02T09:52:19.886Z,13.43
2023-01-02T09:54:46.769Z,13.85
2023-01-02T09:57:28.980Z,13.38
2023-01-02T10:00:01.765Z,12.77
2023-01-02T10:03:08.543Z,13.38
2023-01-02T10:05:47.508Z,12.50
2023-01-02T10:08:42.522Z,13.25
2023-01-02T10:11:28.061Z,13.73
2023-01-02T10:16:55.104Z,14.50
2023-01-02T10:19:39.994Z,14.68
2023-01-02T10:22:10.076Z,15.25
2023-01-02T10:24:40.388Z,15.48
2023-01-02T10:27:13.531Z,15.48
2023-01-02T10:29:45.762Z,14.90
2023-01-02T10:32:20.741Z,14.73
2023-01-02T10:35:03.514Z,15.60
2023-01-02T10:37:30.339Z,14.05
2023-01-02T10:39:58.039Z,14.93
2023-01-02T10:42:25.598Z,15.23
2023-01-02T10:44:52.645Z,13.85
2023-01-02T10:47:19.901Z,14.48
2023-01-02T10:49:50.138Z,14.68
2023-01-02T10:52:43.675Z,16.20
2023-01-02T10:55:10.395Z,15.25
2023-01-02T10:57:51.583Z,14.50
2023-01-02T11:00:22.591Z,14.45
2023-01-02T11:02:57.750Z,13.27
2023-01-02T11:05:27.817Z,13.55
2023-01-02T11:07:55.410Z,12.85
2023-01-02T11:10:40.441Z,13.55
2023-01-02T11:13:16.009Z,12.63
2023-01-02T11:15:57.039Z,12.63
2023-01-02T11:18:30.977Z,12.07
2023-01-02T11:21:04.457Z,12.88
2023-01-02T11:23:57.141Z,12.73
2023-01-02T11:26:26.346Z,12.20
2023-01-02T11:28:55.797Z,12.90
2023-01-02T11:31:23.727Z,11.68
2023-01-02T11:33:50.523Z,11.25
2023-01-02T11:36:20.037Z,12.10
2023-01-02T11:38:51.903Z,11.85
2023-01-02T11:42:22.560Z,11.63
2023-01-02T11:45:11.748Z,10.43
2023-01-02T11:47:51.257Z,11.60
2023-01-02T11:50:34.096Z,11.73
2023-01-02T11:53:25.217Z,11.38
2023-01-02T11:56:33.606Z,11.40
2023-01-02T11:59:12.057Z,11.18
2023-01-02T12:01:50.443Z,11.18
2023-01-02T12:04:17.566Z,11.27
2023-01-02T12:07:04.836Z,12.05
2023-01-02T12:09:51.978Z,13.52
2023-01-02T12:12:30.966Z,11.35
2023-01-02T12:15:18.698Z,11.35
2023-01-02T12:18:26.617Z,11.18
2023-01-02T12:21:19.452Z,11.77
2023-01-02T12:24:07.409Z,11.52
2023-01-02T12:26:55.106Z,11.35
2023-01-02T12:29:47.177Z,11.80
2023-01-02T12:32:42.296Z,12.43
2023-01-02T12:35:37.285Z,12.10
2023-01-02T12:38:07.864Z,12.20
2023-01-02T12:41:02.248Z,11.55
2023-01-02T12:43:50.113Z,11.98
2023-01-02T12:46:32.179Z,12.27
2023-01-02T12:49:14.243Z,13.32
2023-01-02T12:52:03.614Z,12.15
2023-01-02T12:54:46.503Z,13.43
2023-01-02T12:57:34.590Z,13.85
2023-01-02T13:00:39.495Z,14.40
2023-01-02T13:03:06.297Z,13.43
2023-01-02T13:05:44.390Z,13.45
2023-01-02T13:08:20.125Z,13.30
2023-01-02T13:10:47.561Z,16.02
2023-01-02T13:13:15.569Z,16.38
2023-01-02T13:15:47.745Z,14.93
2023-01-02T13:18:21.879Z,14.18
2023-01-02T13:20:58.613Z,14.00
2023-01-02T13:23:34.823Z,14.30
2023-01-02T13:26:11.195Z,14.10
2023-01-02T13:28:42.508Z,12.68
2023-01-02T13:31:45.415Z,12.95
2023-01-02T13:36:46.221Z,13.20
2023-01-02T13:39:23.982Z,13.13
2023-01-02T13:42:15.109Z,13.88
2023-01-02T13:44:46.376Z,13.27
2023-01-02T13:47:24.463Z,14.18
2023-01-02T13:50:17.419Z,13.70
2023-01-02T13:53:02.567Z,15.65
2023-01-02T13:55:35.077Z,13.63
2023-01-02T13:58:18.459Z,16.15
2023-01-02T14:00:54.327Z,14.68
2023-01-02T14:03:24.128Z,13.88
2023-01-02T14:06:00.263Z,14.48
2023-01-02T14:08:34.751Z,14.07
2023-01-02T14:11:55.536Z,13.30
2023-01-02T14:14:27.572Z,10.63
2023-01-02T14:17:12.077Z,12.15
2023-01-02T14:19:39.676Z,12.13
2023-01-02T14:22:14.096Z,14.32
2023-01-02T14:24:46.493Z,11.55
2023-01-02T14:27:16.273Z,10.73
2023-01-02T14:29:52.495Z,10.60
2023-01-02T14:32:44.288Z,10.90
2023-01-02T14:35:11.061Z,12.45
2023-01-02T14:37:43.520Z,11.73
2023-01-02T14:40:38.193Z,11.57
2023-01-02T14:43:31.484Z,9.93
2023-01-02T14:46:04.674Z,9.77
2023-01-02T14:48:58.577Z,9.45
2023-01-02T14:51:37.051Z,8.85
2023-01-02T14:54:17.166Z,9.13
2023-01-02T14:59:41.205Z,8.43
2023-01-02T15:02:18.097Z,9.50
2023-01-02T15:04:55.722Z,8.45
2023-01-02T15:07:36.962Z,8.95
2023-01-02T15:10:20.169Z,8.27
2023-01-02T15:13:06.730Z,8.98
2023-01-02T15:15:40.710Z,9.13
2023-01-02T15:18:28.744Z,8.80
2023-01-02T15:21:02.811Z,8.38
2023-01-02T15:23:30.113Z,8.88
2023-01-02T15:26:32.378Z,9.40
2023-01-02T15:28:43.948Z,9.10
2023-01-02T15:31:16.041Z,9.20
2023-01-02T15:33:43.067Z,9.38
2023-01-02T15:36:33.020Z,9.15
2023-01-02T15:39:26.806Z,9.18
2023-01-02T15:41:57.481Z,9.20
2023-01-02T15:44:46.231Z,9.18
2023-01-02T15:47:14.792Z,9.15
2023-01-02T15:49:44.057Z,11.00
2023-01-02T15:52:30.637Z,12.30
2023-01-02T15:54:58.674Z,11.18
2023-01-02T15:57:28.609Z,12.48
2023-01-02T15:59:56.224Z,12.30
2023-01-02T16:02:44.626Z,10.93
2023-01-02T16:05:20.803Z,10.77
2023-01-02T16:07:55.817Z,13.75
2023-01-02T16:10:26.207Z,13.95
2023-01-02T16:13:34.589Z,15.52
2023-01-02T16:16:16.158Z,15.85
2023-01-02T16:18:49.432Z,15.48
2023-01-02T16:21:17.334Z,14.95
2023-01-02T16:23:52.064Z,14.82
2023-01-02T16:26:23.908Z,15.57
2023-01-02T16:28:51.450Z,15.35
2023-01-02T16:31:22.047Z,15.65
2023-01-02T16:33:49.162Z,15.35
2023-01-02T16:36:15.963Z,14.57
2023-01-02T16:38:53.151Z,15.07
2023-01-02T16:41:37.319Z,13.18
2023-01-02T16:44:12.448Z,13.73
2023-01-02T16:46:40.735Z,13.18
2023-01-02T16:49:11.629Z,13.38
2023-01-02T16:51:42.866Z,13.55
2023-01-02T16:54:13.975Z,12.43
2023-01-02T16:56:41.518Z,13.00
2023-01-02T16:59:08.374Z,11.90
2023-01-02T17:01:35.978Z,12.02
2023-01-02T17:04:02.912Z,13.20
2023-01-02T17:06:29.844Z,13.77
2023-01-02T17:08:56.568Z,12.57
2023-01-02T17:11:24.825Z,12.85
2023-01-02T17:13:52.837Z,14.07
2023-01-02T17:16:20.224Z,14.77
2023-01-02T17:18:47.370Z,13.13
2023-01-02T17:21:14.671Z,13.05
2023-01-02T17:23:41.671Z,12.25
2023-01-02T17:26:08.537Z,12.07
2023-01-02T17:28:35.414Z,12.30
2023-01-02T17:31:02.327Z,12.40
2023-01-02T17:33:29.156Z,12.73
2023-01-02T17:35:56.905Z,11.65
2023-01-02T17:38:23.718Z,11.32
2023-01-02T17:40:56.783Z,11.23
2023-01-02T17:43:23.627Z,11.80
2023-01-02T17:45:50.688Z,11.25
2023-01-02T17:48:23.901Z,11.82
2023-01-02T17:50:52.919Z,11.68
2023-01-02T17:53:21.157Z,11.80
2023-01-02T17:56:20.665Z,12.43
2023-01-02T17:58:39.981Z,10.90
2023-01-02T18:01:06.993Z,11.02
2023-01-02T18:03:33.931Z,11.93
2023-01-02T18:06:05.370Z,11.65
2023-01-02T18:08:32.703Z,10.90
2023-01-02T18:10:59.704Z,11.73
2023-01-02T18:13:28.544Z,11.82
2023-01-02T18:15:55.497Z,10.95
2023-01-02T18:18:25.065Z,11.70
2023-01-02T18:20:52.932Z,11.98
2023-01-02T18:23:19.817Z,11.80
2023-01-02T18:25:46.885Z,11.55
2023-01-02T18:28:24.710Z,11.55
2023-01-02T18:30:58.829Z,11.52
2023-01-02T18:33:28.159Z,12.38
2023-01-02T18:36:06.261Z,11.48
2023-01-02T18:38:37.916Z,12.70
2023-01-02T18:41:17.930Z,11.80
2023-01-02T18:43:46.254Z,12.60
2023-01-02T18:46:19.390Z,11.73
2023-01-02T18:48:46.871Z,12.02
2023-01-02T18:51:20.415Z,13.00
2023-01-02T18:53:52.755Z,12.90
2023-01-02T18:56:27.661Z,12.38
2023-01-02T18:59:06.951Z,13.05
2023-01-02T19:01:41.140Z,12.80
2023-01-02T19:04:20.529Z,12.07
2023-01-02T19:06:53.968Z,11.55
2023-01-02T19:09:25.695Z,20.08
2023-01-02T19:12:39.487Z,13.20
2023-01-02T19:15:43.924Z,12.40
2023-01-02T19:18:13.971Z,12.35
2023-01-02T19:20:45.100Z,16.15
2023-01-02T19:23:48.018Z,12.73
2023-01-02T19:26:33.200Z,12.57
2023-01-02T19:29:09.609Z,11.95
2023-01-02T19:32:00.353Z,16.70
2023-01-02T19:34:40.556Z,18.17
2023-01-02T19:40:06.610Z,12.00
2023-01-02T19:42:35.532Z,12.85
2023-01-02T19:45:04.672Z,12.07
2023-01-02T19:47:35.113Z,21.20
2023-01-02T19:50:02.973Z,15.35
2023-01-02T19:52:30.383Z,24.88
2023-01-02T19:54:59.578Z,14.07
2023-01-02T19:57:27.562Z,14.53
2023-01-02T19:59:56.371Z,12.98
2023-01-02T20:02:25.895Z,11.77
2023-01-02T20:04:55.864Z,16.77
2023-01-02T20:07:25.201Z,14.00
2023-01-02T20:09:53.448Z,12.88
2023-01-02T20:12:30.430Z,12.27
2023-01-02T20:14:59.455Z,11.45
2023-01-02T20:17:29.037Z,12.00
2023-01-02T20:19:57.425Z,12.60
2023-01-02T20:22:24.689Z,11.75
2023-01-02T20:24:53.296Z,12.13
2023-01-02T20:27:21.128Z,13.43
2023-01-02T20:29:50.091Z,13.45
2023-01-02T20:32:18.415Z,15.82
2023-01-02T20:34:47.177Z,20.85
2023-01-02T20:37:15.962Z,14.27
2023-01-02T20:39:46.526Z,13.57
2023-01-02T20:42:13.977Z,15.20
2023-01-02T20:44:41.378Z,12.02
2023-01-02T20:47:09.064Z,21.23
2023-01-02T20:49:37.030Z,21.35
2023-01-02T20:52:04.900Z,26.20
2023-01-02T20:54:33.948Z,18.50
2023-01-02T20:57:03.065Z,25.60
2023-01-02T20:59:30.962Z,37.40
2023-01-02T21:01:58.641Z,28.58
2023-01-02T21:04:34.169Z,62.53
2023-01-02T21:07:05.934Z,16.65
2023-01-02T21:09:33.657Z,23.48
2023-01-02T21:12:01.143Z,22.45
2023-01-02T21:14:32.452Z,21.10
2023-01-02T21:17:04.286Z,19.20
2023-01-02T21:19:31.530Z,14.57
2023-01-02T21:21:59.055Z,13.82
2023-01-02T21:24:26.374Z,14.00
2023-01-02T21:26:53.887Z,14.15
2023-01-02T21:29:20.939Z,14.82
2023-01-02T21:31:48.440Z,15.05
2023-01-02T21:34:15.450Z,14.80
2023-01-02T21:36:42.376Z,13.75
2023-01-02T21:39:10.082Z,16.77
2023-01-02T21:41:55.965Z,34.47
2023-01-02T21:44:22.686Z,67.72
2023-01-02T21:46:49.477Z,21.88
2023-01-02T21:49:16.287Z,23.35
2023-01-02T21:51:42.992Z,20.55
2023-01-02T21:54:09.774Z,16.05
2023-01-02T21:56:36.493Z,13.43
2023-01-02T21:59:03.276Z,23.38
2023-01-02T22:01:30.189Z,43.45
2023-01-02T22:03:57.521Z,18.65
2023-01-02T22:06:24.417Z,15.68
2023-01-02T22:08:51.285Z,16.85
2023-01-02T22:11:36.920Z,17.60
2023-01-02T22:14:03.675Z,17.25
2023-01-02T22:16:31.232Z,17.10
2023-01-02T22:18:58.072Z,24.35
2023-01-02T22:21:24.867Z,17.63
2023-01-02T22:23:51.665Z,16.92
2023-01-02T22:26:18.579Z,15.65
2023-01-02T22:28:45.348Z,16.30
2023-01-02T22:31:12.169Z,15.65
2023-01-02T22:33:39.243Z,15.95
2023-01-02T22:36:06.603Z,17.50
2023-01-02T22:38:34.030Z,16.33
2023-01-02T22:41:02.456Z,14.63
2023-01-02T22:43:34.668Z,14.65
2023-01-02T22:46:06.559Z,14.18
2023-01-02T22:48:38.243Z,15.32
2023-01-02T22:51:09.132Z,17.50
2023-01-02T22:53:37.605Z,12.60
2023-01-02T22:56:19.323Z,12.68
2023-01-02T22:58:47.599Z,12.52
2023-01-02T23:01:33.485Z,11.77
2023-01-02T23:04:00.747Z,11.57
2023-01-02T23:06:27.916Z,12.60
2023-01-02T23:08:55.019Z,11.82
2023-01-02T23:11:22.987Z,11.63
2023-01-02T23:13:56.074Z,11.40
2023-01-02T23:16:42.224Z,11.10
2023-01-02T23:19:14.969Z,11.27
2023-01-02T23:21:44.566Z,10.93
2023-01-02T23:24:13.189Z,11.27
2023-01-02T23:26:43.260Z,28.73
2023-01-02T23:29:11.081Z,31.88
2023-01-02T23:31:40.395Z,17.88
2023-01-02T23:34:08.822Z,20.90
2023-01-02T23:36:37.164Z,14.27
2023-01-02T23:39:06.221Z,11.27
2023-01-02T23:41:33.546Z,31.30
2023-01-02T23:44:00.368Z,15.02
2023-01-02T23:46:27.313Z,18.98
2023-01-02T23:48:54.083Z,12.93
2023-01-02T23:51:20.890Z,15.45
2023-01-02T23:53:48.189Z,13.27
2023-01-02T23:56:24.193Z,13.93
2023-01-02T23:58:53.556Z,17.85
